Terminal Aerodrome Forecast
Issued by NWS

Home | Current Version | Previous Version | Text Only | Print | Product List | Glossary On
Versions: 1 2 3 4 5 6 7 8 9 10 11 12 13 14 15 16 17 18 19 20 21 22 23 24 25
000
FTUS46 KEKA 280520
TAFCEC
TAF
KCEC 280520Z 2806/2906 11004KT P6SM SCT010 OVC200
      TEMPO 2813/2816 6SM BR BKN005
     FM281700 18007KT P6SM SCT010 OVC150
     FM282000 17009KT P6SM SCT012 BKN200
     FM290300 17011G20KT P6SM VCSH SCT012 BKN120 OVC200=

USA.gov is the U.S. government's official web portal to all federal, state and local government web resources and services.